sensor_id;sensor_type;location;lat;lon;timestamp;P1;durP1;ratioP1;P2;durP2;ratioP2
69985;SDS011;57328;52.054;5.294;2023-04-01T00:01:46;32.80;;;8.00;;
69985;SDS011;57328;52.054;5.294;2023-04-01T00:04:13;27.23;;;8.05;;
69985;SDS011;57328;52.054;5.294;2023-04-01T00:06:41;28.60;;;7.97;;
69985;SDS011;57328;52.054;5.294;2023-04-01T00:09:09;24.58;;;7.80;;
69985;SDS011;57328;52.054;5.294;2023-04-01T00:11:36;32.00;;;8.07;;
69985;SDS011;57328;52.054;5.294;2023-04-01T00:14:03;28.20;;;8.63;;
69985;SDS011;57328;52.054;5.294;2023-04-01T00:16:31;23.35;;;7.50;;
69985;SDS011;57328;52.054;5.294;2023-04-01T00:18:58;30.38;;;8.68;;
69985;SDS011;57328;52.054;5.294;2023-04-01T00:21:26;29.35;;;8.57;;
69985;SDS011;57328;52.054;5.294;2023-04-01T00:23:53;25.08;;;8.70;;
69985;SDS011;57328;52.054;5.294;2023-04-01T00:26:20;28.45;;;9.07;;
69985;SDS011;57328;52.054;5.294;2023-04-01T00:28:49;29.92;;;9.10;;
69985;SDS011;57328;52.054;5.294;2023-04-01T00:31:16;37.35;;;10.05;;
69985;SDS011;57328;52.054;5.294;2023-04-01T00:33:43;32.53;;;9.18;;
69985;SDS011;57328;52.054;5.294;2023-04-01T00:36:15;27.80;;;8.38;;
69985;SDS011;57328;52.054;5.294;2023-04-01T00:38:43;30.38;;;8.88;;
69985;SDS011;57328;52.054;5.294;2023-04-01T00:41:11;32.45;;;9.82;;
69985;SDS011;57328;52.054;5.294;2023-04-01T00:43:43;34.75;;;10.45;;
69985;SDS011;57328;52.054;5.294;2023-04-01T00:46:11;32.65;;;10.02;;
69985;SDS011;57328;52.054;5.294;2023-04-01T00:48:39;30.75;;;9.45;;
69985;SDS011;57328;52.054;5.294;2023-04-01T00:51:13;30.00;;;9.65;;
69985;SDS011;57328;52.054;5.294;2023-04-01T00:53:42;28.23;;;9.35;;
69985;SDS011;57328;52.054;5.294;2023-04-01T00:56:15;30.63;;;9.18;;
69985;SDS011;57328;52.054;5.294;2023-04-01T00:58:46;30.88;;;9.50;;
69985;SDS011;57328;52.054;5.294;2023-04-01T01:01:14;27.70;;;10.00;;
69985;SDS011;57328;52.054;5.294;2023-04-01T01:03:42;29.45;;;9.38;;
69985;SDS011;57328;52.054;5.294;2023-04-01T01:12:18;37.05;;;10.55;;
69985;SDS011;57328;52.054;5.294;2023-04-01T01:15:02;24.13;;;7.90;;
69985;SDS011;57328;52.054;5.294;2023-04-01T01:17:26;32.47;;;10.02;;
69985;SDS011;57328;52.054;5.294;2023-04-01T01:27:30;25.80;;;7.85;;
69985;SDS011;57328;52.054;5.294;2023-04-01T01:29:59;26.67;;;9.30;;
69985;SDS011;57328;52.054;5.294;2023-04-01T01:32:39;31.38;;;9.63;;
69985;SDS011;57328;52.054;5.294;2023-04-01T01:37:39;18.30;;;6.35;;
69985;SDS011;57328;52.054;5.294;2023-04-01T01:40:07;19.30;;;6.70;;
69985;SDS011;57328;52.054;5.294;2023-04-01T01:42:38;19.50;;;6.97;;
69985;SDS011;57328;52.054;5.294;2023-04-01T01:45:07;23.17;;;7.88;;
69985;SDS011;57328;52.054;5.294;2023-04-01T01:47:35;19.95;;;7.07;;
69985;SDS011;57328;52.054;5.294;2023-04-01T01:50:03;20.98;;;7.57;;
69985;SDS011;57328;52.054;5.294;2023-04-01T01:52:31;21.88;;;8.25;;
69985;SDS011;57328;52.054;5.294;2023-04-01T01:54:58;17.85;;;7.25;;
69985;SDS011;57328;52.054;5.294;2023-04-01T01:57:26;20.98;;;6.60;;
69985;SDS011;57328;52.054;5.294;2023-04-01T01:59:56;22.73;;;6.63;;
69985;SDS011;57328;52.054;5.294;2023-04-01T02:02:25;18.98;;;6.50;;
69985;SDS011;57328;52.054;5.294;2023-04-01T02:04:53;20.83;;;7.00;;
69985;SDS011;57328;52.054;5.294;2023-04-01T02:07:25;19.95;;;6.88;;
69985;SDS011;57328;52.054;5.294;2023-04-01T02:09:54;16.33;;;5.53;;
69985;SDS011;57328;52.054;5.294;2023-04-01T02:12:21;15.85;;;5.70;;
69985;SDS011;57328;52.054;5.294;2023-04-01T02:14:53;18.77;;;6.30;;
69985;SDS011;57328;52.054;5.294;2023-04-01T02:17:23;14.95;;;5.70;;
69985;SDS011;57328;52.054;5.294;2023-04-01T02:19:53;15.52;;;6.00;;
69985;SDS011;57328;52.054;5.294;2023-04-01T02:22:26;15.48;;;5.85;;
69985;SDS011;57328;52.054;5.294;2023-04-01T02:24:56;18.15;;;6.05;;
69985;SDS011;57328;52.054;5.294;2023-04-01T02:27:24;12.63;;;5.32;;
69985;SDS011;57328;52.054;5.294;2023-04-01T02:29:51;15.45;;;6.03;;
69985;SDS011;57328;52.054;5.294;2023-04-01T02:32:19;14.80;;;5.70;;
69985;SDS011;57328;52.054;5.294;2023-04-01T02:34:47;11.75;;;4.45;;
69985;SDS011;57328;52.054;5.294;2023-04-01T02:37:14;14.45;;;6.25;;
69985;SDS011;57328;52.054;5.294;2023-04-01T02:39:42;14.25;;;6.20;;
69985;SDS011;57328;52.054;5.294;2023-04-01T02:42:09;12.52;;;4.93;;
69985;SDS011;57328;52.054;5.294;2023-04-01T02:44:36;17.02;;;6.15;;
69985;SDS011;57328;52.054;5.294;2023-04-01T02:47:03;18.73;;;6.45;;
69985;SDS011;57328;52.054;5.294;2023-04-01T02:49:31;19.95;;;6.88;;
69985;SDS011;57328;52.054;5.294;2023-04-01T02:51:58;17.27;;;6.05;;
69985;SDS011;57328;52.054;5.294;2023-04-01T02:54:25;12.80;;;5.22;;
69985;SDS011;57328;52.054;5.294;2023-04-01T02:56:52;13.88;;;5.10;;
69985;SDS011;57328;52.054;5.294;2023-04-01T02:59:20;13.45;;;5.90;;
69985;SDS011;57328;52.054;5.294;2023-04-01T03:01:47;15.70;;;6.30;;
69985;SDS011;57328;52.054;5.294;2023-04-01T03:04:14;14.75;;;5.95;;
69985;SDS011;57328;52.054;5.294;2023-04-01T03:06:41;15.30;;;5.38;;
69985;SDS011;57328;52.054;5.294;2023-04-01T03:09:08;15.88;;;5.65;;
69985;SDS011;57328;52.054;5.294;2023-04-01T03:11:36;14.23;;;5.25;;
69985;SDS011;57328;52.054;5.294;2023-04-01T03:14:03;13.70;;;5.60;;
69985;SDS011;57328;52.054;5.294;2023-04-01T03:16:31;14.68;;;4.95;;
69985;SDS011;57328;52.054;5.294;2023-04-01T03:18:58;13.95;;;4.57;;
69985;SDS011;57328;52.054;5.294;2023-04-01T03:21:28;13.73;;;4.60;;
69985;SDS011;57328;52.054;5.294;2023-04-01T03:23:55;13.88;;;5.20;;
69985;SDS011;57328;52.054;5.294;2023-04-01T03:26:22;15.50;;;5.18;;
69985;SDS011;57328;52.054;5.294;2023-04-01T03:28:49;14.02;;;5.13;;
69985;SDS011;57328;52.054;5.294;2023-04-01T03:31:17;16.15;;;5.65;;
69985;SDS011;57328;52.054;5.294;2023-04-01T03:33:46;18.27;;;6.43;;
69985;SDS011;57328;52.054;5.294;2023-04-01T03:36:14;14.10;;;6.07;;
69985;SDS011;57328;52.054;5.294;2023-04-01T03:38:41;16.85;;;6.00;;
69985;SDS011;57328;52.054;5.294;2023-04-01T03:41:15;17.38;;;5.22;;
69985;SDS011;57328;52.054;5.294;2023-04-01T03:43:43;18.38;;;5.95;;
69985;SDS011;57328;52.054;5.294;2023-04-01T03:46:10;15.27;;;5.93;;
69985;SDS011;57328;52.054;5.294;2023-04-01T03:48:37;13.80;;;5.32;;
69985;SDS011;57328;52.054;5.294;2023-04-01T03:51:08;15.27;;;5.53;;
69985;SDS011;57328;52.054;5.294;2023-04-01T03:53:35;13.85;;;5.28;;
69985;SDS011;57328;52.054;5.294;2023-04-01T03:56:03;16.42;;;5.47;;
69985;SDS011;57328;52.054;5.294;2023-04-01T03:58:31;17.98;;;5.57;;
69985;SDS011;57328;52.054;5.294;2023-04-01T04:00:59;18.70;;;5.28;;
69985;SDS011;57328;52.054;5.294;2023-04-01T04:03:26;12.60;;;4.80;;
69985;SDS011;57328;52.054;5.294;2023-04-01T04:05:54;19.77;;;5.38;;
69985;SDS011;57328;52.054;5.294;2023-04-01T04:08:22;13.77;;;4.85;;
69985;SDS011;57328;52.054;5.294;2023-04-01T04:10:54;16.55;;;5.72;;
69985;SDS011;57328;52.054;5.294;2023-04-01T04:13:21;18.42;;;5.45;;
69985;SDS011;57328;52.054;5.294;2023-04-01T04:15:49;14.07;;;5.68;;
69985;SDS011;57328;52.054;5.294;2023-04-01T04:18:16;15.57;;;5.70;;
69985;SDS011;57328;52.054;5.294;2023-04-01T04:20:44;14.23;;;4.90;;
69985;SDS011;57328;52.054;5.294;2023-04-01T04:23:14;14.27;;;5.60;;
69985;SDS011;57328;52.054;5.294;2023-04-01T04:25:41;14.65;;;5.82;;
69985;SDS011;57328;52.054;5.294;2023-04-01T04:28:19;12.10;;;4.80;;
69985;SDS011;57328;52.054;5.294;2023-04-01T04:30:46;13.82;;;5.22;;
69985;SDS011;57328;52.054;5.294;2023-04-01T04:36:42;8.15;;;3.58;;
69985;SDS011;57328;52.054;5.294;2023-04-01T04:39:09;10.20;;;3.67;;
69985;SDS011;57328;52.054;5.294;2023-04-01T04:41:37;10.25;;;3.65;;
69985;SDS011;57328;52.054;5.294;2023-04-01T04:44:04;13.73;;;4.57;;
69985;SDS011;57328;52.054;5.294;2023-04-01T04:46:31;11.40;;;3.40;;
69985;SDS011;57328;52.054;5.294;2023-04-01T04:48:59;10.40;;;3.40;;
69985;SDS011;57328;52.054;5.294;2023-04-01T04:51:26;8.60;;;3.17;;
69985;SDS011;57328;52.054;5.294;2023-04-01T04:53:53;8.50;;;2.88;;
69985;SDS011;57328;52.054;5.294;2023-04-01T04:56:21;12.55;;;3.00;;
69985;SDS011;57328;52.054;5.294;2023-04-01T04:58:51;8.60;;;2.78;;
69985;SDS011;57328;52.054;5.294;2023-04-01T05:01:19;7.47;;;2.67;;
69985;SDS011;57328;52.054;5.294;2023-04-01T05:03:46;8.75;;;2.75;;
69985;SDS011;57328;52.054;5.294;2023-04-01T05:06:14;10.70;;;3.60;;
69985;SDS011;57328;52.054;5.294;2023-04-01T05:08:41;11.88;;;3.97;;
69985;SDS011;57328;52.054;5.294;2023-04-01T05:11:10;11.38;;;3.60;;
69985;SDS011;57328;52.054;5.294;2023-04-01T05:13:39;11.45;;;3.70;;
69985;SDS011;57328;52.054;5.294;2023-04-01T05:16:11;10.68;;;3.60;;
69985;SDS011;57328;52.054;5.294;2023-04-01T05:18:38;8.70;;;3.22;;
69985;SDS011;57328;52.054;5.294;2023-04-01T05:21:06;9.95;;;3.45;;
69985;SDS011;57328;52.054;5.294;2023-04-01T05:23:34;11.05;;;4.18;;
69985;SDS011;57328;52.054;5.294;2023-04-01T05:26:02;13.13;;;4.05;;
69985;SDS011;57328;52.054;5.294;2023-04-01T05:28:30;12.93;;;4.40;;
69985;SDS011;57328;52.054;5.294;2023-04-01T05:31:00;11.40;;;3.72;;
69985;SDS011;57328;52.054;5.294;2023-04-01T05:33:28;18.17;;;4.53;;
69985;SDS011;57328;52.054;5.294;2023-04-01T05:35:55;13.07;;;4.32;;
69985;SDS011;57328;52.054;5.294;2023-04-01T05:38:23;13.05;;;4.57;;
69985;SDS011;57328;52.054;5.294;2023-04-01T05:40:50;14.35;;;5.72;;
69985;SDS011;57328;52.054;5.294;2023-04-01T05:43:17;13.65;;;5.50;;
69985;SDS011;57328;52.054;5.294;2023-04-01T05:45:45;13.35;;;5.22;;
69985;SDS011;57328;52.054;5.294;2023-04-01T05:48:12;13.05;;;4.68;;
69985;SDS011;57328;52.054;5.294;2023-04-01T05:50:39;12.93;;;4.88;;
69985;SDS011;57328;52.054;5.294;2023-04-01T05:53:07;14.63;;;5.80;;
69985;SDS011;57328;52.054;5.294;2023-04-01T05:55:35;13.82;;;4.75;;
69985;SDS011;57328;52.054;5.294;2023-04-01T05:58:02;12.52;;;5.10;;
69985;SDS011;57328;52.054;5.294;2023-04-01T06:00:29;13.63;;;4.85;;
69985;SDS011;57328;52.054;5.294;2023-04-01T06:03:00;14.23;;;5.63;;
69985;SDS011;57328;52.054;5.294;2023-04-01T06:05:29;14.32;;;5.65;;
69985;SDS011;57328;52.054;5.294;2023-04-01T06:08:00;17.75;;;5.80;;
69985;SDS011;57328;52.054;5.294;2023-04-01T06:10:36;17.00;;;5.70;;
69985;SDS011;57328;52.054;5.294;2023-04-01T06:15:51;16.00;;;6.15;;
69985;SDS011;57328;52.054;5.294;2023-04-01T06:26:06;17.70;;;6.50;;
69985;SDS011;57328;52.054;5.294;2023-04-01T06:39:11;13.40;;;5.28;;
69985;SDS011;57328;52.054;5.294;2023-04-01T06:42:01;13.20;;;4.75;;
69985;SDS011;57328;52.054;5.294;2023-04-01T06:44:35;11.70;;;4.90;;
69985;SDS011;57328;52.054;5.294;2023-04-01T06:47:23;11.65;;;4.75;;
69985;SDS011;57328;52.054;5.294;2023-04-01T06:50:11;10.95;;;4.30;;
69985;SDS011;57328;52.054;5.294;2023-04-01T06:55:47;7.70;;;2.67;;
69985;SDS011;57328;52.054;5.294;2023-04-01T06:58:23;9.50;;;3.83;;
69985;SDS011;57328;52.054;5.294;2023-04-01T07:00:53;10.10;;;3.70;;
69985;SDS011;57328;52.054;5.294;2023-04-01T07:03:23;10.35;;;4.20;;
69985;SDS011;57328;52.054;5.294;2023-04-01T07:05:56;10.68;;;3.60;;
69985;SDS011;57328;52.054;5.294;2023-04-01T07:08:25;11.35;;;3.92;;
69985;SDS011;57328;52.054;5.294;2023-04-01T07:11:04;8.55;;;3.17;;
69985;SDS011;57328;52.054;5.294;2023-04-01T07:16:05;5.85;;;2.20;;
69985;SDS011;57328;52.054;5.294;2023-04-01T07:18:40;8.60;;;3.20;;
69985;SDS011;57328;52.054;5.294;2023-04-01T07:23:59;7.70;;;2.95;;
69985;SDS011;57328;52.054;5.294;2023-04-01T07:26:28;7.82;;;3.53;;
69985;SDS011;57328;52.054;5.294;2023-04-01T07:28:55;10.93;;;3.67;;
69985;SDS011;57328;52.054;5.294;2023-04-01T07:34:28;12.52;;;4.85;;
69985;SDS011;57328;52.054;5.294;2023-04-01T07:37:06;8.70;;;3.38;;
69985;SDS011;57328;52.054;5.294;2023-04-01T07:57:40;12.43;;;5.05;;
69985;SDS011;57328;52.054;5.294;2023-04-01T08:05:22;12.93;;;4.90;;
69985;SDS011;57328;52.054;5.294;2023-04-01T08:20:39;13.02;;;4.35;;
69985;SDS011;57328;52.054;5.294;2023-04-01T08:33:25;15.52;;;5.70;;
69985;SDS011;57328;52.054;5.294;2023-04-01T08:39:10;15.70;;;6.30;;
69985;SDS011;57328;52.054;5.294;2023-04-01T08:46:20;14.32;;;5.80;;
69985;SDS011;57328;52.054;5.294;2023-04-01T08:51:23;13.27;;;4.93;;
69985;SDS011;57328;52.054;5.294;2023-04-01T08:56:34;12.65;;;5.93;;
69985;SDS011;57328;52.054;5.294;2023-04-01T09:04:24;15.73;;;6.43;;
69985;SDS011;57328;52.054;5.294;2023-04-01T09:15:18;16.40;;;6.00;;
69985;SDS011;57328;52.054;5.294;2023-04-01T09:18:01;17.10;;;6.90;;
69985;SDS011;57328;52.054;5.294;2023-04-01T09:25:50;22.38;;;7.80;;
69985;SDS011;57328;52.054;5.294;2023-04-01T09:28:28;15.45;;;6.18;;
69985;SDS011;57328;52.054;5.294;2023-04-01T09:42:04;16.30;;;6.38;;
69985;SDS011;57328;52.054;5.294;2023-04-01T09:44:35;13.40;;;5.85;;
69985;SDS011;57328;52.054;5.294;2023-04-01T10:16:34;9.20;;;4.03;;
69985;SDS011;57328;52.054;5.294;2023-04-01T10:19:18;9.13;;;3.70;;
69985;SDS011;57328;52.054;5.294;2023-04-01T10:43:09;8.30;;;3.10;;
69985;SDS011;57328;52.054;5.294;2023-04-01T10:48:22;7.55;;;3.38;;
69985;SDS011;57328;52.054;5.294;2023-04-01T11:04:08;9.80;;;4.22;;
69985;SDS011;57328;52.054;5.294;2023-04-01T11:09:24;8.50;;;4.00;;
69985;SDS011;57328;52.054;5.294;2023-04-01T11:32:54;7.47;;;3.38;;
69985;SDS011;57328;52.054;5.294;2023-04-01T11:38:07;8.00;;;2.88;;
69985;SDS011;57328;52.054;5.294;2023-04-01T11:46:11;5.32;;;2.15;;
69985;SDS011;57328;52.054;5.294;2023-04-01T11:48:40;6.32;;;2.75;;
69985;SDS011;57328;52.054;5.294;2023-04-01T11:53:44;5.55;;;2.28;;
69985;SDS011;57328;52.054;5.294;2023-04-01T11:59:08;5.75;;;2.30;;
69985;SDS011;57328;52.054;5.294;2023-04-01T12:04:33;4.85;;;2.30;;
69985;SDS011;57328;52.054;5.294;2023-04-01T12:07:15;3.60;;;1.85;;
69985;SDS011;57328;52.054;5.294;2023-04-01T12:09:52;4.00;;;1.95;;
69985;SDS011;57328;52.054;5.294;2023-04-01T12:15:33;5.10;;;1.90;;
69985;SDS011;57328;52.054;5.294;2023-04-01T12:21:07;2.90;;;1.50;;
69985;SDS011;57328;52.054;5.294;2023-04-01T12:31:14;7.47;;;2.80;;
69985;SDS011;57328;52.054;5.294;2023-04-01T12:33:52;7.32;;;3.20;;
69985;SDS011;57328;52.054;5.294;2023-04-01T12:41:59;5.50;;;2.45;;
69985;SDS011;57328;52.054;5.294;2023-04-01T12:44:38;8.82;;;3.47;;
69985;SDS011;57328;52.054;5.294;2023-04-01T12:47:15;9.75;;;3.65;;
69985;SDS011;57328;52.054;5.294;2023-04-01T12:49:53;6.28;;;3.03;;
69985;SDS011;57328;52.054;5.294;2023-04-01T12:52:29;7.53;;;3.53;;
69985;SDS011;57328;52.054;5.294;2023-04-01T12:57:45;8.15;;;3.40;;
69985;SDS011;57328;52.054;5.294;2023-04-01T13:02:51;4.53;;;2.33;;
69985;SDS011;57328;52.054;5.294;2023-04-01T13:05:44;2.25;;;1.17;;
69985;SDS011;57328;52.054;5.294;2023-04-01T13:09:03;5.45;;;2.40;;
69985;SDS011;57328;52.054;5.294;2023-04-01T13:16:27;8.32;;;3.65;;
69985;SDS011;57328;52.054;5.294;2023-04-01T13:18:57;7.32;;;3.42;;
69985;SDS011;57328;52.054;5.294;2023-04-01T13:23:57;8.52;;;3.72;;
69985;SDS011;57328;52.054;5.294;2023-04-01T13:26:41;10.77;;;4.28;;
69985;SDS011;57328;52.054;5.294;2023-04-01T13:29:26;10.68;;;4.80;;
69985;SDS011;57328;52.054;5.294;2023-04-01T13:37:33;9.07;;;3.78;;
69985;SDS011;57328;52.054;5.294;2023-04-01T13:42:49;11.68;;;4.63;;
69985;SDS011;57328;52.054;5.294;2023-04-01T13:45:22;9.75;;;4.13;;
69985;SDS011;57328;52.054;5.294;2023-04-01T13:48:04;11.48;;;4.63;;
69985;SDS011;57328;52.054;5.294;2023-04-01T13:53:29;9.15;;;3.72;;
69985;SDS011;57328;52.054;5.294;2023-04-01T14:17:03;4.85;;;1.90;;
69985;SDS011;57328;52.054;5.294;2023-04-01T14:32:51;4.18;;;1.88;;
69985;SDS011;57328;52.054;5.294;2023-04-01T14:41:06;4.75;;;2.08;;
69985;SDS011;57328;52.054;5.294;2023-04-01T14:49:49;7.10;;;2.97;;
69985;SDS011;57328;52.054;5.294;2023-04-01T14:52:33;7.72;;;3.85;;
69985;SDS011;57328;52.054;5.294;2023-04-01T14:55:15;18.88;;;9.95;;
69985;SDS011;57328;52.054;5.294;2023-04-01T14:57:57;10.48;;;5.15;;
69985;SDS011;57328;52.054;5.294;2023-04-01T15:00:27;16.90;;;9.85;;
69985;SDS011;57328;52.054;5.294;2023-04-01T15:05:49;5.50;;;2.90;;
69985;SDS011;57328;52.054;5.294;2023-04-01T15:08:29;7.68;;;3.72;;
69985;SDS011;57328;52.054;5.294;2023-04-01T15:14:04;8.40;;;4.00;;
69985;SDS011;57328;52.054;5.294;2023-04-01T15:16:54;6.63;;;3.13;;
69985;SDS011;57328;52.054;5.294;2023-04-01T15:24:47;5.60;;;2.65;;
69985;SDS011;57328;52.054;5.294;2023-04-01T15:34:59;18.98;;;9.93;;
69985;SDS011;57328;52.054;5.294;2023-04-01T15:40:00;4.50;;;1.90;;
69985;SDS011;57328;52.054;5.294;2023-04-01T15:42:32;4.82;;;2.25;;
69985;SDS011;57328;52.054;5.294;2023-04-01T15:45:06;8.68;;;4.45;;
69985;SDS011;57328;52.054;5.294;2023-04-01T15:47:36;6.90;;;3.88;;
69985;SDS011;57328;52.054;5.294;2023-04-01T15:52:43;4.20;;;1.80;;
69985;SDS011;57328;52.054;5.294;2023-04-01T15:55:17;4.47;;;2.50;;
69985;SDS011;57328;52.054;5.294;2023-04-01T16:03:21;18.95;;;11.73;;
69985;SDS011;57328;52.054;5.294;2023-04-01T16:06:17;12.18;;;5.97;;
69985;SDS011;57328;52.054;5.294;2023-04-01T16:27:40;7.20;;;3.50;;
69985;SDS011;57328;52.054;5.294;2023-04-01T16:32:44;7.05;;;4.25;;
69985;SDS011;57328;52.054;5.294;2023-04-01T16:45:41;14.90;;;6.88;;
69985;SDS011;57328;52.054;5.294;2023-04-01T16:48:12;7.55;;;3.67;;
69985;SDS011;57328;52.054;5.294;2023-04-01T16:50:42;15.32;;;6.30;;
69985;SDS011;57328;52.054;5.294;2023-04-01T16:55:44;19.33;;;8.05;;
69985;SDS011;57328;52.054;5.294;2023-04-01T16:58:26;10.13;;;3.70;;
69985;SDS011;57328;52.054;5.294;2023-04-01T17:01:07;16.95;;;7.32;;
69985;SDS011;57328;52.054;5.294;2023-04-01T17:03:44;18.55;;;8.52;;
69985;SDS011;57328;52.054;5.294;2023-04-01T17:06:41;13.35;;;6.00;;
69985;SDS011;57328;52.054;5.294;2023-04-01T17:09:28;10.60;;;5.50;;
69985;SDS011;57328;52.054;5.294;2023-04-01T17:20:40;7.20;;;3.92;;
69985;SDS011;57328;52.054;5.294;2023-04-01T17:23:12;25.50;;;11.25;;
69985;SDS011;57328;52.054;5.294;2023-04-01T17:25:50;11.80;;;6.25;;
69985;SDS011;57328;52.054;5.294;2023-04-01T17:36:02;6.97;;;3.53;;
69985;SDS011;57328;52.054;5.294;2023-04-01T17:54:47;20.65;;;10.23;;
69985;SDS011;57328;52.054;5.294;2023-04-01T18:05:19;7.63;;;3.90;;
69985;SDS011;57328;52.054;5.294;2023-04-01T18:29:52;17.73;;;7.28;;
69985;SDS011;57328;52.054;5.294;2023-04-01T18:32:37;8.98;;;4.88;;
69985;SDS011;57328;52.054;5.294;2023-04-01T18:37:47;13.80;;;6.95;;
69985;SDS011;57328;52.054;5.294;2023-04-01T18:40:20;14.70;;;8.25;;
69985;SDS011;57328;52.054;5.294;2023-04-01T18:42:57;8.88;;;5.28;;
69985;SDS011;57328;52.054;5.294;2023-04-01T18:45:27;7.95;;;3.88;;
69985;SDS011;57328;52.054;5.294;2023-04-01T18:50:53;8.18;;;4.40;;
69985;SDS011;57328;52.054;5.294;2023-04-01T18:56:02;12.98;;;6.15;;
69985;SDS011;57328;52.054;5.294;2023-04-01T18:58:45;12.32;;;6.45;;
69985;SDS011;57328;52.054;5.294;2023-04-01T19:01:15;9.38;;;4.50;;
69985;SDS011;57328;52.054;5.294;2023-04-01T19:03:48;24.35;;;10.70;;
69985;SDS011;57328;52.054;5.294;2023-04-01T19:06:27;10.50;;;5.78;;
69985;SDS011;57328;52.054;5.294;2023-04-01T19:08:58;31.08;;;13.75;;
69985;SDS011;57328;52.054;5.294;2023-04-01T19:11:37;10.30;;;4.72;;
69985;SDS011;57328;52.054;5.294;2023-04-01T19:21:44;6.30;;;3.47;;
69985;SDS011;57328;52.054;5.294;2023-04-01T19:32:08;6.03;;;3.25;;
69985;SDS011;57328;52.054;5.294;2023-04-01T19:37:22;5.28;;;2.75;;
69985;SDS011;57328;52.054;5.294;2023-04-01T19:45:02;5.78;;;3.05;;
69985;SDS011;57328;52.054;5.294;2023-04-01T19:52:51;6.18;;;3.28;;
69985;SDS011;57328;52.054;5.294;2023-04-01T19:55:37;6.05;;;3.60;;
69985;SDS011;57328;52.054;5.294;2023-04-01T19:58:21;8.65;;;4.38;;
69985;SDS011;57328;52.054;5.294;2023-04-01T20:00:52;7.88;;;4.15;;
69985;SDS011;57328;52.054;5.294;2023-04-01T20:08:41;6.45;;;3.72;;
69985;SDS011;57328;52.054;5.294;2023-04-01T20:11:24;9.90;;;4.70;;
69985;SDS011;57328;52.054;5.294;2023-04-01T20:16:48;19.17;;;8.70;;
69985;SDS011;57328;52.054;5.294;2023-04-01T20:19:27;15.65;;;7.65;;
69985;SDS011;57328;52.054;5.294;2023-04-01T20:21:56;19.85;;;6.25;;
69985;SDS011;57328;52.054;5.294;2023-04-01T20:24:28;21.55;;;10.60;;
69985;SDS011;57328;52.054;5.294;2023-04-01T20:29:37;17.52;;;10.15;;
69985;SDS011;57328;52.054;5.294;2023-04-01T20:32:14;22.85;;;13.57;;
69985;SDS011;57328;52.054;5.294;2023-04-01T20:35:08;12.27;;;6.72;;
69985;SDS011;57328;52.054;5.294;2023-04-01T20:52:57;11.07;;;5.80;;
69985;SDS011;57328;52.054;5.294;2023-04-01T20:55:30;8.30;;;4.30;;
69985;SDS011;57328;52.054;5.294;2023-04-01T20:58:09;10.43;;;5.20;;
69985;SDS011;57328;52.054;5.294;2023-04-01T21:00:45;7.97;;;4.13;;
69985;SDS011;57328;52.054;5.294;2023-04-01T21:16:39;10.68;;;4.90;;
69985;SDS011;57328;52.054;5.294;2023-04-01T21:21:39;12.57;;;5.68;;
69985;SDS011;57328;52.054;5.294;2023-04-01T21:27:02;9.23;;;3.75;;
69985;SDS011;57328;52.054;5.294;2023-04-01T21:37:25;7.45;;;4.03;;
69985;SDS011;57328;52.054;5.294;2023-04-01T21:45:33;8.27;;;3.60;;
69985;SDS011;57328;52.054;5.294;2023-04-01T21:50:42;6.93;;;3.90;;
69985;SDS011;57328;52.054;5.294;2023-04-01T22:03:56;8.48;;;5.10;;
69985;SDS011;57328;52.054;5.294;2023-04-01T22:06:37;9.10;;;4.72;;
69985;SDS011;57328;52.054;5.294;2023-04-01T22:09:16;8.55;;;4.05;;
69985;SDS011;57328;52.054;5.294;2023-04-01T22:14:30;9.68;;;5.10;;
69985;SDS011;57328;52.054;5.294;2023-04-01T22:16:58;11.63;;;5.75;;
69985;SDS011;57328;52.054;5.294;2023-04-01T22:19:38;6.35;;;3.67;;
69985;SDS011;57328;52.054;5.294;2023-04-01T22:32:23;9.25;;;4.25;;
69985;SDS011;57328;52.054;5.294;2023-04-01T22:37:21;9.90;;;5.00;;
69985;SDS011;57328;52.054;5.294;2023-04-01T22:39:57;10.32;;;4.78;;
69985;SDS011;57328;52.054;5.294;2023-04-01T22:47:54;11.30;;;4.78;;
69985;SDS011;57328;52.054;5.294;2023-04-01T22:50:33;14.30;;;5.53;;
69985;SDS011;57328;52.054;5.294;2023-04-01T22:53:08;10.73;;;4.72;;
69985;SDS011;57328;52.054;5.294;2023-04-01T22:55:43;8.40;;;3.63;;
69985;SDS011;57328;52.054;5.294;2023-04-01T22:58:23;9.93;;;4.70;;
69985;SDS011;57328;52.054;5.294;2023-04-01T23:00:54;6.85;;;3.63;;
69985;SDS011;57328;52.054;5.294;2023-04-01T23:03:28;10.10;;;5.07;;
69985;SDS011;57328;52.054;5.294;2023-04-01T23:05:57;14.80;;;5.40;;
69985;SDS011;57328;52.054;5.294;2023-04-01T23:10:56;12.65;;;5.47;;
69985;SDS011;57328;52.054;5.294;2023-04-01T23:13:27;15.98;;;5.93;;
69985;SDS011;57328;52.054;5.294;2023-04-01T23:15:56;11.50;;;5.80;;
69985;SDS011;57328;52.054;5.294;2023-04-01T23:26:00;6.30;;;3.38;;
69985;SDS011;57328;52.054;5.294;2023-04-01T23:30:59;15.65;;;7.55;;
69985;SDS011;57328;52.054;5.294;2023-04-01T23:33:30;12.43;;;5.45;;
69985;SDS011;57328;52.054;5.294;2023-04-01T23:36:11;15.18;;;7.85;;
69985;SDS011;57328;52.054;5.294;2023-04-01T23:38:41;11.18;;;6.32;;
69985;SDS011;57328;52.054;5.294;2023-04-01T23:41:16;13.88;;;6.32;;
69985;SDS011;57328;52.054;5.294;2023-04-01T23:43:43;11.23;;;5.55;;
69985;SDS011;57328;52.054;5.294;2023-04-01T23:46:12;12.07;;;6.10;;
69985;SDS011;57328;52.054;5.294;2023-04-01T23:48:40;15.18;;;6.70;;
69985;SDS011;57328;52.054;5.294;2023-04-01T23:51:17;16.92;;;8.02;;
69985;SDS011;57328;52.054;5.294;2023-04-01T23:53:45;14.63;;;6.20;;
69985;SDS011;57328;52.054;5.294;2023-04-01T23:56:16;15.63;;;7.30;;
69985;SDS011;57328;52.054;5.294;2023-04-01T23:58:44;12.32;;;5.00;;
